Time;durP1;ratioP1;P1;durP2;ratioP2;P2;SDS_P1;SDS_P2;PMS_P1;PMS_P2;Temp;Humidity;BMP_temperature;BMP_pressure;BME280_temperature;BME280_humidity;BME280_pressure;Samples;Min_cycle;Max_cycle;Signal;HPM_P1;HPM_P2
2024/04/04 00:00:53;;;;;;;;;5.00;4.50;;;;;15.92;100.00;98294.91;6051756;28;96949;-60
2024/04/04 00:03:55;;;;;;;;;5.00;5.00;;;;;15.92;100.00;98294.06;6051215;28;96419;-60
2024/04/04 00:06:56;;;;;;;;;5.00;5.00;;;;;15.94;100.00;98290.00;6019688;28;98673;-60
2024/04/04 00:10:00;;;;;;;;;6.00;5.00;;;;;15.93;100.00;98291.06;6051821;28;96401;-60
2024/04/04 00:13:02;;;;;;;;;5.00;5.00;;;;;15.93;100.00;98284.84;6050981;28;96438;-60
2024/04/04 00:16:06;;;;;;;;;6.00;5.00;;;;;15.88;100.00;98279.41;6043834;28;96397;-60
2024/04/04 00:19:07;;;;;;;;;6.00;5.60;;;;;15.91;100.00;98282.38;6035019;28;97229;-60
2024/04/04 00:22:09;;;;;;;;;5.40;5.00;;;;;15.91;100.00;98276.94;6047183;28;98648;-60
2024/04/04 00:25:10;;;;;;;;;7.00;5.40;;;;;15.92;100.00;98272.34;6027652;28;98580;-60
2024/04/04 00:28:13;;;;;;;;;6.60;6.00;;;;;15.93;100.00;98279.41;6051382;28;96759;-60
2024/04/04 00:31:15;;;;;;;;;6.00;5.00;;;;;15.89;100.00;98272.84;6051126;28;96676;-60
2024/04/04 00:34:18;;;;;;;;;6.00;6.00;;;;;15.90;100.00;98279.94;6049450;28;96153;-56
2024/04/04 00:37:19;;;;;;;;;5.25;5.25;;;;;15.88;100.00;98282.13;6024779;28;97254;-56
2024/04/04 00:40:21;;;;;;;;;6.60;6.00;;;;;15.84;100.00;98279.09;6064651;28;97382;-56
2024/04/04 00:43:22;;;;;;;;;6.00;5.50;;;;;15.84;100.00;98281.81;6053355;28;96879;-56
2024/04/04 00:46:26;;;;;;;;;5.00;4.00;;;;;15.83;100.00;98288.34;6054047;28;99069;-55
2024/04/04 00:49:28;;;;;;;;;5.40;5.00;;;;;15.81;100.00;98290.53;6054360;28;96345;-55
2024/04/04 00:52:30;;;;;;;;;6.00;6.00;;;;;15.80;100.00;98285.34;6070168;28;97233;-57
2024/04/04 00:55:31;;;;;;;;;5.00;5.00;;;;;15.81;100.00;98282.38;6038460;28;96845;-55
2024/04/04 00:58:34;;;;;;;;;7.00;6.50;;;;;15.82;100.00;98288.63;6069707;28;96462;-57
2024/04/04 01:02:05;;;;;;;;;5.00;5.00;;;;;15.81;100.00;98282.38;6377589;23;99310;31
2024/04/04 01:05:08;;;;;;;;;6.40;5.00;;;;;15.81;100.00;98282.38;6101510;23;96744;-64
2024/04/04 01:08:12;;;;;;;;;5.60;5.00;;;;;15.78;100.00;98274.78;6092069;28;97005;-64
2024/04/04 01:11:16;;;;;;;;;5.00;4.80;;;;;15.79;100.00;98279.09;6080696;28;96439;-63
2024/04/04 01:14:17;;;;;;;;;7.00;6.00;;;;;15.80;100.00;98277.19;6095855;28;97024;-64
2024/04/04 01:17:19;;;;;;;;;4.60;4.20;;;;;15.75;100.00;98280.72;6080414;28;99243;-65
2024/04/04 01:20:22;;;;;;;;;6.25;4.75;;;;;15.76;100.00;98278.84;6109233;28;96307;-63
2024/04/04 01:23:24;;;;;;;;;5.00;5.00;;;;;15.68;100.00;98276.66;6103683;28;96505;-65
2024/04/04 01:26:27;;;;;;;;;6.00;5.00;;;;;15.71;100.00;98276.09;6094896;28;96530;-65
2024/04/04 01:29:29;;;;;;;;;6.20;5.00;;;;;15.72;100.00;98281.28;6090738;28;97519;-64
2024/04/04 01:32:31;;;;;;;;;5.00;5.00;;;;;15.60;100.00;98265.22;6102444;28;96299;-62
2024/04/04 01:35:32;;;;;;;;;6.00;5.00;;;;;15.65;100.00;98267.13;6103296;28;96452;-64
2024/04/04 01:38:35;;;;;;;;;4.00;4.00;;;;;15.70;100.00;98280.72;6089671;28;96765;-65
2024/04/04 01:41:38;;;;;;;;;3.80;3.80;;;;;15.70;100.00;98285.34;6096900;28;96762;-65
2024/04/04 01:44:41;;;;;;;;;5.00;5.00;;;;;15.69;100.00;98280.97;6105094;28;96914;-64
2024/04/04 01:47:42;;;;;;;;;4.60;4.00;;;;;15.65;100.00;98280.72;6109538;28;96329;-64
2024/04/04 01:50:44;;;;;;;;;5.00;5.00;;;;;15.56;100.00;98274.19;6096401;28;98855;-64
2024/04/04 01:53:46;;;;;;;;;5.00;5.00;;;;;15.66;100.00;98278.81;6095757;28;97269;-65
2024/04/04 01:56:49;;;;;;;;;5.00;4.00;;;;;15.56;100.00;98268.75;6108330;28;96347;-64
2024/04/04 01:59:52;;;;;;;;;3.00;3.00;;;;;15.65;100.00;98286.16;6082565;28;96762;-65
2024/04/04 02:02:53;;;;;;;;;4.60;3.60;;;;;15.64;100.00;98286.44;6093820;28;98484;-63
2024/04/04 02:05:55;;;;;;;;;5.00;4.00;;;;;15.61;100.00;98282.34;6079899;28;96403;-64
2024/04/04 02:08:57;;;;;;;;;3.60;3.00;;;;;15.56;100.00;98288.59;6095867;28;96853;-65
2024/04/04 02:12:00;;;;;;;;;4.00;3.80;;;;;15.59;100.00;98281.78;6097151;28;96918;-64
2024/04/04 02:15:02;;;;;;;;;6.50;5.50;;;;;15.60;100.00;98289.66;6086676;28;96762;-62
2024/04/04 02:18:07;;;;;;;;;3.20;3.20;;;;;15.62;100.00;98285.88;6086061;28;96399;-62
2024/04/04 02:21:09;;;;;;;;;4.80;3.20;;;;;15.63;100.00;98291.06;6091285;28;96305;-62
2024/04/04 02:24:10;;;;;;;;;4.25;3.25;;;;;15.65;100.00;98275.28;6093235;28;96413;-62
2024/04/04 02:27:14;;;;;;;;;5.00;5.00;;;;;15.68;100.00;98288.34;6102507;28;96320;-62
2024/04/04 02:30:15;;;;;;;;;3.00;3.00;;;;;15.71;100.00;98281.53;6089180;28;96315;-62
2024/04/04 02:33:18;;;;;;;;;4.00;4.00;;;;;15.44;100.00;98238.28;6080827;28;98366;-62
2024/04/04 02:36:21;;;;;;;;;4.40;4.40;;;;;15.63;100.00;98258.44;6101405;28;96397;-62
2024/04/04 02:39:25;;;;;;;;;4.00;4.00;;;;;15.73;100.00;98276.66;6105834;28;96858;-62
2024/04/04 02:42:29;;;;;;;;;3.50;3.50;;;;;15.71;100.00;98274.22;6089056;28;98685;-62
2024/04/04 02:45:32;;;;;;;;;5.00;4.00;;;;;15.70;100.00;98274.47;6084219;28;96351;-62
2024/04/04 02:48:34;;;;;;;;;4.00;4.00;;;;;15.66;100.00;98276.91;6070610;28;96620;-62
2024/04/04 02:51:35;;;;;;;;;5.00;5.00;;;;;15.62;100.00;98278.53;6099639;28;97324;-62
2024/04/04 02:54:38;;;;;;;;;4.00;3.00;;;;;15.58;100.00;98281.00;6097590;28;97588;-62
2024/04/04 02:57:41;;;;;;;;;4.00;4.00;;;;;15.55;100.00;98277.97;6070626;28;96754;-62
2024/04/04 03:00:43;;;;;;;;;4.00;3.00;;;;;15.52;100.00;98275.81;6099857;28;96495;-62
2024/04/04 03:03:44;;;;;;;;;4.00;3.00;;;;;15.48;100.00;98275.50;6094411;28;96731;-62
2024/04/04 03:06:46;;;;;;;;;5.00;4.00;;;;;15.47;100.00;98264.88;6086836;28;96309;-62
2024/04/04 03:09:47;;;;;;;;;3.25;3.00;;;;;15.41;100.00;98252.38;6093795;28;98842;-62
2024/04/04 03:12:51;;;;;;;;;4.00;3.60;;;;;15.48;100.00;98267.34;6107696;28;96381;-62
2024/04/04 03:15:55;;;;;;;;;3.00;3.00;;;;;15.48;100.00;98278.22;6075937;28;96293;-62
2024/04/04 03:18:58;;;;;;;;;4.00;4.00;;;;;15.47;100.00;98270.31;6084606;28;97167;-62
2024/04/04 03:21:59;;;;;;;;;3.40;3.00;;;;;15.42;100.00;98267.59;6090674;28;97743;-62
2024/04/04 03:25:01;;;;;;;;;3.20;3.20;;;;;15.48;100.00;98280.13;6080734;28;98578;-62
2024/04/04 03:28:06;;;;;;;;;4.00;4.00;;;;;15.48;100.00;98278.22;6071839;28;96768;-62
2024/04/04 03:31:08;;;;;;;;;3.00;3.00;;;;;15.48;100.00;98278.22;6089704;28;96480;-62
2024/04/04 03:34:10;;;;;;;;;6.00;5.00;;;;;15.49;100.00;98284.47;6077095;28;97635;-62
2024/04/04 03:37:12;;;;;;;;;4.00;3.60;;;;;15.50;100.00;98280.63;6075053;28;98405;-62
2024/04/04 03:40:15;;;;;;;;;4.60;3.80;;;;;15.49;100.00;98281.75;6094275;28;96749;-62
2024/04/04 03:43:18;;;;;;;;;4.00;4.00;;;;;15.50;100.00;98291.50;6083791;28;96648;-62
2024/04/04 03:46:21;;;;;;;;;4.00;4.00;;;;;15.50;100.00;98297.75;6078369;28;96367;-62
2024/04/04 03:49:22;;;;;;;;;4.00;4.00;;;;;15.49;100.00;98292.63;6079371;28;98541;-62
2024/04/04 03:52:25;;;;;;;;;4.00;4.00;;;;;15.45;100.00;98292.31;6092774;28;96278;-61
2024/04/04 03:55:26;;;;;;;;;5.80;4.00;;;;;15.45;100.00;98296.94;6078577;28;96459;-61
2024/04/04 03:58:30;;;;;;;;;4.00;4.00;;;;;15.44;100.00;98301.53;6089875;28;96343;-62
2024/04/04 04:01:31;;;;;;;;;5.00;4.60;;;;;15.45;100.00;98299.66;6083536;28;97116;-61
2024/04/04 04:04:33;;;;;;;;;4.00;4.00;;;;;15.40;100.00;98302.34;6090736;28;96379;-62
2024/04/04 04:07:35;;;;;;;;;4.50;4.00;;;;;15.31;100.00;98288.47;6058901;28;98482;-62
2024/04/04 04:10:37;;;;;;;;;4.75;4.75;;;;;15.35;100.00;98294.19;6086198;28;96290;-62
2024/04/04 04:13:41;;;;;;;;;5.25;5.00;;;;;15.31;100.00;98298.50;6091228;28;96662;-61
2024/04/04 04:16:42;;;;;;;;;4.40;4.00;;;;;15.24;100.00;98296.06;6068378;28;99830;-62
2024/04/04 04:19:44;;;;;;;;;4.00;4.00;;;;;15.24;100.00;98303.38;6072886;28;98459;-62
2024/04/04 04:22:46;;;;;;;;;6.00;5.00;;;;;15.20;100.00;98296.88;6076861;28;98634;-62
2024/04/04 04:25:48;;;;;;;;;4.80;4.80;;;;;15.23;100.00;98302.56;6077984;28;97004;-62
2024/04/04 04:28:50;;;;;;;;;3.00;3.00;;;;;15.23;100.00;98304.47;6094988;28;96387;-62
2024/04/04 04:31:56;;;;;;;;;6.00;5.00;;;;;15.22;100.00;98303.66;6079748;28;98693;-62
2024/04/04 04:34:57;;;;;;;;;5.20;4.00;;;;;15.25;100.00;98305.03;6096107;28;96414;-62
2024/04/04 04:38:00;;;;;;;;;5.40;5.00;;;;;15.24;100.00;98306.09;6096909;28;96309;-62
2024/04/04 04:41:03;;;;;;;;;5.40;4.40;;;;;15.29;100.00;98311.56;6098355;28;98545;-62
2024/04/04 04:44:07;;;;;;;;;5.00;5.00;;;;;15.36;100.00;98314.81;6078847;28;98417;-62
2024/04/04 04:47:08;;;;;;;;;4.20;4.00;;;;;15.40;100.00;98308.59;6095373;28;96391;-62
2024/04/04 04:50:10;;;;;;;;;6.00;5.00;;;;;15.48;100.00;98324.41;6074285;28;96632;-62
2024/04/04 04:53:13;;;;;;;;;4.00;3.80;;;;;15.52;100.00;98325.53;6081584;28;98584;-62
2024/04/04 04:56:14;;;;;;;;;6.00;5.20;;;;;15.57;100.00;98324.72;6099736;28;96461;-62
2024/04/04 04:59:17;;;;;;;;;5.00;5.00;;;;;15.65;100.00;98326.91;6104929;28;96460;-62
2024/04/04 05:02:19;;;;;;;;;5.00;5.00;;;;;15.69;100.00;98330.72;6084140;28;96403;-62
2024/04/04 05:05:21;;;;;;;;;6.00;5.00;;;;;15.56;100.00;98299.44;6097955;28;97170;-62
2024/04/04 05:08:22;;;;;;;;;4.20;4.20;;;;;15.79;100.00;98329.91;6090202;28;96407;-62
2024/04/04 05:11:24;;;;;;;;;7.00;6.40;;;;;15.83;100.00;98333.75;6090981;28;96671;-63
2024/04/04 05:14:27;;;;;;;;;6.00;4.00;;;;;15.90;100.00;98337.00;6095972;28;96711;-62
2024/04/04 05:17:29;;;;;;;;;4.25;4.25;;;;;15.94;100.00;98329.94;6093538;28;97109;-62
2024/04/04 05:20:31;;;;;;;;;7.80;6.00;;;;;15.99;100.00;98340.84;6088833;28;97596;-62
2024/04/04 05:23:33;;;;;;;;;5.75;5.00;;;;;16.01;100.00;98331.34;6096361;28;99553;-62
2024/04/04 05:26:35;;;;;;;;;5.00;4.00;;;;;16.07;100.00;98334.06;6087388;28;97132;-62
2024/04/04 05:29:39;;;;;;;;;4.00;4.00;;;;;16.01;100.00;98342.22;6098647;28;96270;-62
2024/04/04 05:32:42;;;;;;;;;5.00;4.50;;;;;16.09;100.00;98349.00;6070847;28;96917;-62
2024/04/04 05:35:44;;;;;;;;;10.00;7.40;;;;;16.12;100.00;98350.38;6083742;28;96515;-61
2024/04/04 05:38:46;;;;;;;;;7.00;5.40;;;;;16.12;100.00;98343.03;6079772;28;98460;-62
2024/04/04 05:41:48;;;;;;;;;7.00;6.00;;;;;16.17;100.00;98350.38;6085037;28;96542;-62
2024/04/04 05:44:52;;;;;;;;;7.00;6.00;;;;;16.23;100.00;98350.09;6084418;28;97624;-62
2024/04/04 05:47:53;;;;;;;;;7.80;6.80;;;;;16.33;100.00;98341.94;6085882;28;98617;-62
2024/04/04 05:51:01;;;;;;;;;5.00;4.00;;;;;16.45;100.00;98337.06;6096695;28;96739;-63
2024/04/04 05:54:03;;;;;;;;;4.25;4.00;;;;;16.56;100.00;98351.47;6111285;28;96492;-64
2024/04/04 05:57:05;;;;;;;;;4.00;3.40;;;;;16.70;100.00;98349.88;6093615;28;98508;-64
2024/04/04 06:00:09;;;;;;;;;4.00;3.60;;;;;16.89;100.00;98352.81;6090471;28;98418;-64
2024/04/04 06:03:14;;;;;;;;;4.80;4.80;;;;;17.01;100.00;98355.22;6100003;28;98832;-64
2024/04/04 06:06:16;;;;;;;;;3.75;3.75;;;;;17.18;100.00;98366.63;6096922;28;96787;-64
2024/04/04 06:09:18;;;;;;;;;5.00;4.00;;;;;17.22;100.00;98348.63;6077830;28;98629;-63
2024/04/04 06:12:20;;;;;;;;;3.80;3.80;;;;;17.40;100.00;98358.91;6101307;28;96283;-61
2024/04/04 06:15:23;;;;;;;;;7.00;5.00;;;;;17.52;100.00;98369.50;6087786;28;98646;-64
2024/04/04 06:18:26;;;;;;;;;5.80;5.00;;;;;17.57;100.00;98355.88;6072890;28;96730;-64
2024/04/04 06:21:27;;;;;;;;;4.00;4.00;;;;;17.76;100.00;98365.06;6094733;28;96435;-64
2024/04/04 06:24:29;;;;;;;;;5.00;4.00;;;;;17.94;100.00;98363.59;6105257;28;96379;-64
2024/04/04 06:27:30;;;;;;;;;4.00;4.00;;;;;18.15;100.00;98371.38;6111082;28;97073;-63
2024/04/04 06:30:34;;;;;;;;;4.00;4.00;;;;;18.38;100.00;98374.47;6100317;28;96335;-64
2024/04/04 06:33:35;;;;;;;;;4.00;4.00;;;;;18.58;100.00;98374.34;6090330;28;98566;-64
2024/04/04 06:36:37;;;;;;;;;5.00;4.00;;;;;18.77;100.00;98367.09;6076725;28;99233;-64
2024/04/04 06:39:39;;;;;;;;;5.40;4.00;;;;;18.99;100.00;98369.34;6101303;28;96375;-64
2024/04/04 06:42:41;;;;;;;;;3.00;3.00;;;;;19.20;100.00;98370.75;6079576;28;96433;-63
2024/04/04 06:45:44;;;;;;;;;4.00;3.00;;;;;19.28;100.00;98359.19;6109478;28;97038;-66
2024/04/04 06:48:46;;;;;;;;;5.00;5.00;;;;;19.52;100.00;98367.41;6088712;28;96519;-66
2024/04/04 06:51:48;;;;;;;;;4.00;4.00;;;;;19.67;100.00;98369.94;6090070;28;96316;-66
2024/04/04 06:54:49;;;;;;;;;3.00;3.00;;;;;19.88;100.00;98370.50;6081251;28;96872;-62
2024/04/04 06:57:51;;;;;;;;;4.00;3.00;;;;;20.00;100.00;98356.38;6087465;28;96554;-62
2024/04/04 07:00:58;;;;;;;;;3.00;3.00;;;;;20.23;100.00;98367.22;6090118;28;96380;-62
2024/04/04 07:04:01;;;;;;;;;5.60;5.00;;;;;20.45;100.00;98380.34;6078709;28;96358;-63
2024/04/04 07:07:02;;;;;;;;;1.80;1.80;;;;;20.56;100.00;98370.88;6079196;28;96520;-61
2024/04/04 07:10:06;;;;;;;;;4.00;4.00;;;;;20.72;100.00;98385.91;6069349;28;96411;-63
2024/04/04 07:13:07;;;;;;;;;2.75;2.75;;;;;20.92;100.00;98384.75;6073186;28;96449;-63
2024/04/04 07:16:12;;;;;;;;;4.00;3.00;;;;;21.00;100.00;98364.09;6085414;28;96320;-63
2024/04/04 07:19:14;;;;;;;;;2.00;2.00;;;;;21.41;100.00;98384.13;6085516;28;96402;-62
2024/04/04 07:22:15;;;;;;;;;2.00;2.00;;;;;21.58;100.00;98381.63;6078856;28;96647;-62
2024/04/04 07:25:18;;;;;;;;;2.00;2.00;;;;;21.80;100.00;98391.03;6075306;28;96684;-62
2024/04/04 07:28:19;;;;;;;;;2.40;2.40;;;;;21.97;100.00;98391.25;6099141;28;96842;-62
2024/04/04 07:31:23;;;;;;;;;3.00;3.00;;;;;22.14;100.00;98388.66;6094765;28;96931;-62
2024/04/04 07:34:24;;;;;;;;;3.00;2.60;;;;;22.55;100.00;98390.47;6092725;28;96366;-62
2024/04/04 07:37:28;;;;;;;;;3.00;2.00;;;;;23.01;100.00;98387.44;6086630;28;96495;-63
2024/04/04 07:40:29;;;;;;;;;2.50;2.50;;;;;23.40;100.00;98389.41;6087033;28;96410;-62
2024/04/04 07:43:32;;;;;;;;;3.00;3.00;;;;;23.31;100.00;98400.38;6097479;28;96410;-63
2024/04/04 07:46:36;;;;;;;;;2.00;2.00;;;;;23.77;100.00;98399.91;6095816;28;97938;-62
2024/04/04 07:49:37;;;;;;;;;1.20;1.20;;;;;24.42;99.26;98410.09;6078882;28;98708;-62
2024/04/04 07:52:40;;;;;;;;;2.00;2.00;;;;;25.55;90.43;98393.06;6084027;28;96873;-62
2024/04/04 07:55:41;;;;;;;;;2.00;1.00;;;;;26.66;82.98;98399.00;6093688;28;96982;-62
2024/04/04 07:58:44;;;;;;;;;2.00;2.00;;;;;27.70;74.00;98401.53;6095259;28;96603;-62
2024/04/04 08:01:49;;;;;;;;;1.00;1.00;;;;;28.86;65.59;98409.91;6096150;28;97500;-62
2024/04/04 08:04:52;;;;;;;;;0.00;0.00;;;;;29.37;62.88;98404.56;6088505;28;96360;-61
2024/04/04 08:07:53;;;;;;;;;1.00;1.00;;;;;29.27;60.82;98397.53;6107878;28;96397;-61
2024/04/04 08:10:56;;;;;;;;;4.50;3.50;;;;;30.58;57.81;98397.16;6086816;28;96408;-61
2024/04/04 08:13:57;;;;;;;;;2.00;2.00;;;;;32.31;53.05;98391.94;6085856;28;96775;-62
2024/04/04 08:17:00;;;;;;;;;2.00;2.00;;;;;34.18;48.17;98395.19;6088919;28;96488;-61
2024/04/04 08:20:02;;;;;;;;;2.00;2.00;;;;;35.13;43.83;98392.06;6088215;28;96626;-61
2024/04/04 08:23:06;;;;;;;;;0.20;0.20;;;;;33.80;43.03;98390.88;6099387;28;96359;-62
2024/04/04 08:26:08;;;;;;;;;1.00;1.00;;;;;32.72;48.04;98386.53;6083231;28;96470;-61
2024/04/04 08:29:11;;;;;;;;;4.00;3.00;;;;;31.74;50.29;98391.06;6083291;28;96392;-63
2024/04/04 08:32:14;;;;;;;;;1.00;1.00;;;;;31.42;52.00;98388.91;6094915;28;96803;-61
2024/04/04 08:35:15;;;;;;;;;1.00;1.00;;;;;32.84;46.35;98372.34;6077546;28;96791;-60
2024/04/04 08:38:18;;;;;;;;;3.00;3.00;;;;;34.78;45.03;98387.94;6083566;28;96653;-61
2024/04/04 08:41:19;;;;;;;;;2.00;2.00;;;;;35.25;42.73;98388.09;6096002;28;96514;-61
2024/04/04 08:44:22;;;;;;;;;2.00;2.00;;;;;36.08;41.92;98382.94;6091101;28;97451;-63
2024/04/04 08:47:26;;;;;;;;;2.00;2.00;;;;;36.78;40.07;98373.56;6086284;28;96661;-61
2024/04/04 08:50:29;;;;;;;;;1.20;1.20;;;;;37.19;37.17;98381.41;6071080;28;98655;-61
2024/04/04 08:53:31;;;;;;;;;2.00;2.00;;;;;35.62;38.39;98374.53;6090024;28;96986;-62
2024/04/04 08:56:34;;;;;;;;;2.00;2.00;;;;;33.04;43.37;98376.53;6098910;28;96699;-62
2024/04/04 08:59:35;;;;;;;;;1.60;1.00;;;;;34.14;42.10;98375.56;6093952;28;96777;-62
2024/04/04 09:02:39;;;;;;;;;2.00;2.00;;;;;35.99;38.50;98379.75;6098910;28;96532;-62
2024/04/04 09:05:42;;;;;;;;;1.40;1.40;;;;;37.54;33.78;98377.53;6082127;28;96952;-62
2024/04/04 09:08:45;;;;;;;;;1.00;1.00;;;;;40.09;33.53;98382.84;6089764;28;96637;-62
2024/04/04 09:11:47;;;;;;;;;3.00;2.00;;;;;41.71;31.35;98375.00;6090303;28;97503;-62
2024/04/04 09:14:55;;;;;;;;;1.00;1.00;;;;;42.48;28.19;98355.16;6084123;28;96988;-63
2024/04/04 09:18:06;;;;;;;;;1.00;1.00;;;;;43.65;27.51;98365.00;6090829;28;97525;-62
2024/04/04 09:21:07;;;;;;;;;1.00;1.00;;;;;43.60;26.94;98367.19;6102470;28;96904;-62
2024/04/04 09:24:10;;;;;;;;;1.00;1.00;;;;;41.59;29.65;98362.34;6098342;28;97204;-62
2024/04/04 09:27:18;;;;;;;;;5.00;3.00;;;;;40.79;30.65;98362.97;6092486;28;99665;-62
2024/04/04 09:30:23;;;;;;;;;6.00;4.00;;;;;41.49;29.87;98366.25;6082547;28;96267;-61
2024/04/04 09:33:28;;;;;;;;;4.40;3.40;;;;;42.02;29.59;98364.13;6093920;28;97988;-61
2024/04/04 09:36:31;;;;;;;;;3.00;2.00;;;;;40.02;31.72;98369.69;6086099;28;98003;-62
2024/04/04 09:39:34;;;;;;;;;7.00;3.25;;;;;36.21;36.05;98374.94;6089126;28;97011;-62
2024/04/04 09:42:41;;;;;;;;;3.00;1.80;;;;;32.87;42.76;98377.16;6079656;28;96804;-62
2024/04/04 09:45:45;;;;;;;;;9.00;5.60;;;;;31.11;48.14;98376.00;6061906;28;96656;-62
2024/04/04 09:48:50;;;;;;;;;5.00;4.00;;;;;29.69;52.77;98384.78;6088279;28;96253;-62
2024/04/04 09:51:55;;;;;;;;;1.00;1.00;;;;;28.42;57.43;98376.50;6059351;28;98594;-62
2024/04/04 09:54:58;;;;;;;;;2.00;2.00;;;;;27.48;61.76;98377.81;6087994;28;96430;-61
2024/04/04 09:58:00;;;;;;;;;1.00;1.00;;;;;26.55;66.77;98372.91;6071654;28;99030;-62
2024/04/04 10:01:18;;;;;;;;;1.80;1.80;;;;;25.90;71.34;98388.19;6084028;28;96913;-61
2024/04/04 10:04:20;;;;;;;;;3.00;2.00;;;;;25.06;75.23;98379.91;6087286;28;98540;-61
2024/04/04 10:07:26;;;;;;;;;2.00;2.00;;;;;24.72;77.45;98387.06;6087346;28;96736;-61
2024/04/04 10:10:29;;;;;;;;;3.00;3.00;;;;;25.63;73.74;98386.69;6080524;28;96377;-60
2024/04/04 10:13:31;;;;;;;;;1.60;1.60;;;;;26.43;68.96;98383.94;6090533;28;96523;-61
2024/04/04 10:16:34;;;;;;;;;2.00;1.00;;;;;28.79;62.39;98388.28;6078723;28;96772;-61
2024/04/04 10:19:37;;;;;;;;;3.00;2.00;;;;;31.70;51.07;98389.41;6089446;28;96446;-61
2024/04/04 10:22:40;;;;;;;;;1.00;1.00;;;;;33.53;47.21;98384.63;6083473;28;96971;-61
2024/04/04 10:25:43;;;;;;;;;1.00;0.80;;;;;33.20;46.43;98371.56;6091869;28;96511;-62
2024/04/04 10:28:46;;;;;;;;;2.00;2.00;;;;;32.06;47.65;98385.19;6087956;28;96709;-62
2024/04/04 10:31:48;;;;;;;;;2.00;1.00;;;;;30.56;50.65;98397.53;6095710;28;96340;-63
2024/04/04 10:35:00;;;;;;;;;2.00;2.00;;;;;29.39;54.04;98391.13;6087454;28;96289;-63
2024/04/04 10:38:07;;;;;;;;;1.00;1.00;;;;;28.69;56.83;98388.75;6083049;28;96590;-62
2024/04/04 10:41:09;;;;;;;;;3.00;2.40;;;;;28.48;59.46;98406.78;6079940;28;96435;-62
2024/04/04 10:44:13;;;;;;;;;2.00;2.00;;;;;29.22;59.21;98386.69;6083964;28;97170;-62
2024/04/04 10:47:14;;;;;;;;;2.00;2.00;;;;;31.49;51.68;98378.66;6089409;28;96845;-63
2024/04/04 10:50:18;;;;;;;;;1.00;1.00;;;;;34.24;44.99;98405.63;6079315;28;96364;-63
2024/04/04 10:53:19;;;;;;;;;2.00;2.00;;;;;36.60;39.00;98400.88;6081564;28;97125;-62
2024/04/04 10:56:23;;;;;;;;;2.00;2.00;;;;;37.87;36.54;98395.78;6090698;28;96381;-63
2024/04/04 10:59:25;;;;;;;;;1.00;1.00;;;;;38.96;34.53;98403.09;6078004;28;96349;-63
2024/04/04 11:02:27;;;;;;;;;1.50;1.00;;;;;39.99;33.49;98401.56;6095471;28;96518;-63
2024/04/04 11:05:29;;;;;;;;;1.00;0.80;;;;;41.09;31.21;98397.47;6086720;28;97003;-63
2024/04/04 11:08:32;;;;;;;;;1.80;1.00;;;;;41.53;29.57;98397.28;6086385;28;96331;-63
2024/04/04 11:11:33;;;;;;;;;1.00;1.00;;;;;41.77;28.92;98410.03;6099944;28;96644;-63
2024/04/04 11:14:35;;;;;;;;;2.00;2.00;;;;;41.65;28.80;98403.03;6086266;28;96555;-63
2024/04/04 11:17:39;;;;;;;;;1.00;1.00;;;;;40.75;29.02;98407.47;6102077;28;96689;-63
2024/04/04 11:20:43;;;;;;;;;0.75;0.75;;;;;39.21;29.74;98399.94;6102687;28;96322;-63
2024/04/04 11:23:44;;;;;;;;;1.00;1.00;;;;;38.10;31.92;98396.78;6071202;28;96320;-63
2024/04/04 11:26:47;;;;;;;;;3.00;2.00;;;;;36.51;33.69;98403.31;6096194;28;96600;-63
2024/04/04 11:29:48;;;;;;;;;1.00;1.00;;;;;35.28;35.28;98402.13;6093822;28;96550;-63
2024/04/04 11:32:50;;;;;;;;;1.00;0.00;;;;;33.67;38.28;98404.38;6089498;28;97211;-63
2024/04/04 11:35:55;;;;;;;;;0.00;0.00;;;;;31.70;43.36;98406.94;6082322;28;97067;-58
2024/04/04 11:38:56;;;;;;;;;1.20;1.00;;;;;30.67;46.59;98400.53;6093412;28;97682;-59
2024/04/04 11:41:58;;;;;;;;;0.60;0.00;;;;;31.62;46.74;98396.03;6105743;28;96335;-58
2024/04/04 11:45:01;;;;;;;;;1.00;1.00;;;;;32.41;44.62;98401.66;6104982;28;96383;-59
2024/04/04 11:48:04;;;;;;;;;1.20;1.00;;;;;32.93;43.32;98409.16;6084579;28;98690;-58
2024/04/04 11:51:07;;;;;;;;;0.60;0.60;;;;;32.39;45.83;98387.28;6076440;28;96973;-59
2024/04/04 11:54:10;;;;;;;;;1.00;1.00;;;;;31.54;46.32;98397.06;6089845;28;96702;-58
2024/04/04 11:57:12;;;;;;;;;1.50;1.00;;;;;31.31;48.38;98405.41;6076550;28;98609;-59
2024/04/04 12:00:14;;;;;;;;;2.00;1.00;;;;;31.55;47.68;98398.66;6097761;28;96579;-60
2024/04/04 12:03:16;;;;;;;;;2.20;2.20;;;;;31.49;47.03;98395.38;6093667;28;96386;-58
2024/04/04 12:06:18;;;;;;;;;1.00;1.00;;;;;30.16;49.54;98408.09;6105667;28;96278;-59
2024/04/04 12:09:21;;;;;;;;;1.00;1.00;;;;;29.09;52.79;98412.91;6108223;28;96374;-59
2024/04/04 12:12:22;;;;;;;;;2.25;2.00;;;;;27.61;60.30;98411.91;6098752;28;96649;-58
2024/04/04 12:15:24;;;;;;;;;2.00;2.00;;;;;26.71;64.33;98405.16;6078127;28;96250;-58
2024/04/04 12:21:47;;;;;;;;;2.00;2.00;;;;;25.15;72.67;98408.28;6081343;28;96438;-59
2024/04/04 12:24:49;;;;;;;;;4.00;3.00;;;;;24.48;78.83;98417.09;6096177;28;96340;-58
2024/04/04 12:27:51;;;;;;;;;2.00;2.00;;;;;23.89;81.61;98413.88;6083830;28;96305;-57
2024/04/04 12:30:53;;;;;;;;;3.00;3.00;;;;;23.63;86.22;98424.00;6082317;28;100228;-58
2024/04/04 12:33:54;;;;;;;;;2.75;2.00;;;;;23.33;86.70;98414.59;6108193;28;96400;-58
2024/04/04 12:36:58;;;;;;;;;6.00;5.00;;;;;23.21;90.66;98420.69;6102972;28;96858;-57
2024/04/04 12:40:00;;;;;;;;;10.00;8.00;;;;;23.26;90.39;98423.28;6101802;28;96860;-59
2024/04/04 12:43:02;;;;;;;;;3.00;2.60;;;;;23.16;92.57;98418.09;6100896;28;96847;-58
2024/04/04 12:46:04;;;;;;;;;2.00;2.00;;;;;22.89;93.27;98413.53;6088398;28;96287;-61
2024/04/04 12:49:08;;;;;;;;;2.00;1.00;;;;;22.55;96.43;98417.94;6075377;28;98995;-61
2024/04/04 12:52:11;;;;;;;;;1.00;1.00;;;;;22.48;97.54;98425.81;6059883;28;97324;-63
2024/04/04 12:55:12;;;;;;;;;2.00;2.00;;;;;22.72;97.88;98420.88;6090525;28;96946;-62
2024/04/04 12:58:15;;;;;;;;;2.00;2.00;;;;;23.03;97.02;98409.91;6087974;28;96514;-62
2024/04/04 13:01:16;;;;;;;;;2.33;2.33;;;;;23.54;93.96;98404.69;6067271;28;96532;-61
2024/04/04 13:04:18;;;;;;;;;4.80;3.00;;;;;23.69;90.62;98406.22;6088081;28;96785;-61
2024/04/04 13:07:21;;;;;;;;;2.00;2.00;;;;;23.61;91.75;98405.03;6088529;28;98071;-61
2024/04/04 13:10:23;;;;;;;;;2.00;2.00;;;;;23.64;91.24;98409.09;6095562;28;96380;-62
2024/04/04 13:13:25;;;;;;;;;3.00;2.00;;;;;23.37;93.02;98406.53;6088032;28;97096;-61
2024/04/04 13:16:27;;;;;;;;;3.00;2.00;;;;;23.24;93.96;98416.50;6086965;28;96821;-62
2024/04/04 13:19:28;;;;;;;;;2.00;2.00;;;;;22.96;96.69;98404.88;6071055;28;98447;-62
2024/04/04 13:22:33;;;;;;;;;2.00;2.00;;;;;22.79;98.32;98404.72;6086158;28;96366;-63
2024/04/04 13:25:34;;;;;;;;;1.80;1.80;;;;;22.68;99.22;98404.13;6085176;28;97083;-62
2024/04/04 13:28:36;;;;;;;;;2.00;2.00;;;;;22.40;100.00;98410.88;6085843;28;96401;-63
2024/04/04 13:31:38;;;;;;;;;2.00;2.00;;;;;22.20;100.00;98403.91;6080461;28;98955;-63
2024/04/04 13:34:40;;;;;;;;;3.00;3.00;;;;;22.04;100.00;98406.16;6094470;28;96982;-62
2024/04/04 13:37:43;;;;;;;;;1.25;1.00;;;;;22.30;100.00;98395.44;6088169;28;96570;-62
2024/04/04 13:40:45;;;;;;;;;3.00;2.20;;;;;22.39;100.00;98387.25;6086985;28;96474;-62
2024/04/04 13:43:47;;;;;;;;;2.00;2.00;;;;;22.44;100.00;98390.72;6085825;28;96423;-63
2024/04/04 13:46:49;;;;;;;;;2.00;2.00;;;;;22.32;100.00;98397.88;6089547;28;96915;-63
2024/04/04 13:49:52;;;;;;;;;2.00;2.00;;;;;22.09;100.00;98393.47;6085566;28;96977;-63
2024/04/04 13:52:55;;;;;;;;;3.00;3.00;;;;;22.02;100.00;98393.88;6086402;28;96651;-62
2024/04/04 13:55:57;;;;;;;;;3.00;3.00;;;;;21.99;100.00;98403.53;6095012;28;96354;-63
2024/04/04 13:58:59;;;;;;;;;2.00;2.00;;;;;21.85;100.00;98399.97;6099862;28;96610;-64
2024/04/04 14:02:09;;;;;;;;;1.00;1.00;;;;;21.69;100.00;98400.63;6072910;28;96731;-64
2024/04/04 14:05:10;;;;;;;;;5.00;5.00;;;;;21.59;100.00;98396.97;6093736;28;96388;-64
2024/04/04 14:08:14;;;;;;;;;2.00;2.00;;;;;21.49;100.00;98397.16;6081620;28;96401;-64
2024/04/04 14:11:16;;;;;;;;;1.00;1.00;;;;;21.34;100.00;98396.63;6095262;28;96794;-63
2024/04/04 14:14:17;;;;;;;;;3.00;2.00;;;;;21.23;100.00;98395.19;6103859;28;97273;-63
2024/04/04 14:17:20;;;;;;;;;1.60;1.40;;;;;21.23;100.00;98400.69;6104541;28;99441;-64